METAR Data

Data at: 0620 UTC 28 Sep 2022

METAR for:KBVY (Beverly Muni, MA, US)
Text:KBVY 280553Z AUTO 23004KT 10SM BKN070 11/09 A2992 RMK AO2 SLP125 T01110089 10167 20106 53009 TSNO
Temperature: 11.1°C ( 52°F)
Dewpoint: 8.9°C ( 48°F) [RH = 86%]
Pressure (altimeter):29.92 inches Hg (1013.3 mb) [Sea level pressure: 1012.5 mb]
Winds:from the SW (230 degrees) at 5 MPH (4 knots; 2.1 m/s)
Visibility:10 or more sm (16+ km)
Ceiling:7000 feet AGL
Clouds: broken clouds at 7000 feet AGL
QC Flag:automated observation with no human augmentation